createdAt,value
2017-11-08T00:00:38.164Z,50.5
2017-11-08T00:01:39.833Z,48.6
2017-11-08T00:02:41.488Z,46.2
2017-11-08T00:03:43.136Z,49.8
2017-11-08T00:04:44.790Z,49.8
2017-11-08T00:05:46.439Z,47.4
2017-11-08T00:06:48.095Z,46.4
2017-11-08T00:07:49.742Z,49.4
2017-11-08T00:08:51.393Z,48.1
2017-11-08T00:09:53.052Z,51.1
2017-11-08T00:10:54.696Z,48.1
2017-11-08T00:11:56.357Z,48.3
2017-11-08T00:12:58.002Z,48.0
2017-11-08T00:13:59.660Z,48.5
2017-11-08T00:15:01.317Z,47.8
2017-11-08T00:16:03.054Z,45.6
2017-11-08T00:17:04.706Z,46.7
2017-11-08T00:18:06.363Z,49.4
2017-11-08T00:19:08.224Z,49.4
2017-11-08T00:20:09.737Z,50.2
2017-11-08T00:21:11.384Z,49.3
2017-11-08T00:22:13.032Z,49.9
2017-11-08T00:23:14.689Z,50.0
2017-11-08T00:24:16.338Z,50.1
2017-11-08T00:25:17.986Z,48.1
2017-11-08T00:26:19.633Z,47.8
2017-11-08T00:27:22.185Z,49.1
2017-11-08T00:28:23.841Z,50.9
2017-11-08T00:29:25.544Z,48.4
2017-11-08T00:30:27.209Z,51.2
2017-11-08T00:31:28.865Z,47.2
2017-11-08T00:32:30.525Z,48.5
2017-11-08T00:33:32.186Z,43.0
2017-11-08T00:34:33.887Z,43.2
2017-11-08T00:35:35.541Z,41.5
2017-11-08T00:36:37.180Z,39.9
2017-11-08T00:37:38.839Z,43.3
2017-11-08T00:38:40.495Z,37.0
2017-11-08T00:39:42.177Z,41.2
2017-11-08T00:40:43.818Z,42.1
2017-11-08T00:41:45.463Z,39.3
2017-11-08T00:42:47.109Z,39.0
2017-11-08T00:43:48.756Z,39.7
2017-11-08T00:44:50.417Z,38.0
2017-11-08T00:45:52.071Z,40.8
2017-11-08T00:46:53.725Z,38.5
2017-11-08T00:47:55.376Z,35.5
2017-11-08T00:48:57.053Z,39.7
2017-11-08T00:49:58.705Z,38.0
2017-11-08T00:51:00.358Z,39.7
2017-11-08T00:52:02.025Z,39.5
2017-11-08T00:53:03.682Z,39.2
2017-11-08T00:54:05.365Z,39.5
2017-11-08T00:55:07.011Z,41.1
2017-11-08T00:56:08.664Z,40.1
2017-11-08T00:57:10.313Z,40.4
2017-11-08T00:58:11.965Z,41.3
2017-11-08T00:59:13.617Z,38.9
2017-11-08T01:00:15.269Z,38.9
2017-11-08T01:01:16.934Z,38.7
2017-11-08T01:02:18.590Z,36.4
2017-11-08T01:03:20.246Z,37.2
2017-11-08T01:04:21.897Z,39.3
2017-11-08T01:05:23.551Z,42.0
2017-11-08T01:06:25.208Z,38.0
2017-11-08T01:07:26.879Z,44.4
2017-11-08T01:08:28.528Z,40.4
2017-11-08T01:09:30.173Z,38.0
2017-11-08T01:10:31.829Z,38.2
2017-11-08T01:11:33.489Z,41.2
2017-11-08T01:12:35.139Z,40.2
2017-11-08T01:13:36.789Z,37.4
2017-11-08T01:14:38.462Z,40.8
2017-11-08T01:15:40.114Z,45.1
2017-11-08T01:16:41.775Z,41.7
2017-11-08T01:17:43.425Z,41.1
2017-11-08T01:18:45.077Z,39.4
2017-11-08T01:19:46.722Z,43.3
2017-11-08T01:20:48.371Z,41.9
2017-11-08T01:21:50.033Z,43.5
2017-11-08T01:22:51.680Z,39.5
2017-11-08T01:23:53.354Z,39.2
2017-11-08T01:24:55.015Z,38.7
2017-11-08T01:25:56.658Z,42.1
2017-11-08T01:26:58.322Z,40.9
2017-11-08T01:27:59.980Z,43.8
2017-11-08T01:29:01.631Z,43.8
2017-11-08T01:30:03.297Z,42.2
2017-11-08T01:31:04.944Z,41.5
2017-11-08T01:32:06.599Z,44.5
2017-11-08T01:33:08.243Z,42.3
2017-11-08T01:34:09.903Z,44.2
2017-11-08T01:35:11.569Z,49.3
2017-11-08T01:36:13.232Z,45.6
2017-11-08T01:37:14.884Z,47.4
2017-11-08T01:38:16.551Z,48.1
2017-11-08T01:39:18.188Z,48.9
2017-11-08T01:40:19.836Z,48.4
2017-11-08T01:41:21.493Z,47.6
2017-11-08T01:42:23.175Z,47.0
2017-11-08T01:43:24.829Z,47.6
2017-11-08T01:44:26.479Z,47.0
2017-11-08T01:45:28.135Z,47.4
2017-11-08T01:46:29.787Z,42.0
2017-11-08T01:47:31.457Z,44.1
2017-11-08T01:48:33.134Z,43.9
2017-11-08T01:49:34.795Z,47.8
2017-11-08T01:50:36.440Z,43.7
2017-11-08T01:51:38.094Z,45.3
2017-11-08T01:52:39.748Z,43.9
2017-11-08T01:53:41.401Z,43.0
2017-11-08T01:54:43.057Z,45.4
2017-11-08T01:55:44.708Z,43.4
2017-11-08T01:56:46.366Z,44.8
2017-11-08T01:57:48.026Z,46.1
2017-11-08T01:58:49.661Z,43.8
2017-11-08T01:59:51.323Z,50.4
2017-11-08T02:00:52.968Z,55.2
2017-11-08T02:01:54.628Z,48.9
2017-11-08T02:02:56.272Z,44.4
2017-11-08T02:03:57.931Z,45.6
2017-11-08T02:04:59.587Z,46.5
2017-11-08T02:06:01.242Z,44.9
2017-11-08T02:07:02.902Z,50.5
2017-11-08T02:08:04.552Z,47.4
2017-11-08T02:09:06.202Z,49.5
2017-11-08T02:10:07.858Z,46.2
2017-11-08T02:11:09.511Z,43.6
2017-11-08T02:12:11.158Z,47.2
2017-11-08T02:13:12.813Z,43.5
2017-11-08T02:14:14.488Z,49.0
2017-11-08T02:15:16.139Z,45.1
2017-11-08T02:16:17.810Z,48.2
2017-11-08T02:17:19.469Z,44.4
2017-11-08T02:18:21.126Z,42.6
2017-11-08T02:19:22.826Z,44.4
2017-11-08T02:20:24.476Z,48.9
2017-11-08T02:21:26.133Z,44.1
2017-11-08T02:22:27.786Z,45.4
2017-11-08T02:23:29.442Z,48.4
2017-11-08T02:24:31.088Z,47.2
2017-11-08T02:25:32.740Z,45.9
2017-11-08T02:26:34.399Z,47.0
2017-11-08T02:27:36.053Z,48.9
2017-11-08T02:28:37.706Z,50.0
2017-11-08T02:29:39.352Z,46.9
2017-11-08T02:30:41.009Z,46.6
2017-11-08T02:31:42.662Z,50.7
2017-11-08T02:32:44.310Z,46.6
2017-11-08T02:33:45.961Z,43.5
2017-11-08T02:34:47.613Z,47.7
2017-11-08T02:35:49.261Z,52.4
2017-11-08T02:36:50.914Z,44.6
2017-11-08T02:37:52.563Z,46.4
2017-11-08T02:38:54.228Z,51.3
2017-11-08T02:39:55.893Z,52.3
2017-11-08T02:40:57.548Z,53.8
2017-11-08T02:41:59.204Z,50.6
2017-11-08T02:43:00.849Z,53.0
2017-11-08T02:44:02.496Z,51.1
2017-11-08T02:45:04.144Z,45.6
2017-11-08T02:46:05.793Z,52.2
2017-11-08T02:47:07.439Z,49.3
2017-11-08T02:48:09.090Z,50.1
2017-11-08T02:49:10.758Z,53.8
2017-11-08T02:50:12.426Z,57.6
2017-11-08T02:51:14.067Z,52.3
2017-11-08T02:52:15.728Z,53.0
2017-11-08T02:53:17.374Z,50.4
2017-11-08T02:54:19.019Z,52.9
2017-11-08T03:00:58.168Z,48.6
2017-11-08T03:01:59.829Z,49.6
2017-11-08T03:03:01.476Z,51.7
2017-11-08T03:04:03.119Z,52.9
2017-11-08T03:05:04.760Z,57.0
2017-11-08T03:06:06.410Z,53.0
2017-11-08T03:07:08.062Z,53.4
2017-11-08T03:08:09.716Z,51.5
2017-11-08T03:09:11.368Z,56.9
2017-11-08T03:10:13.021Z,52.8
2017-11-08T03:11:14.686Z,56.5
2017-11-08T03:12:16.322Z,54.8
2017-11-08T03:13:17.974Z,51.5
2017-11-08T03:14:19.633Z,57.0
2017-11-08T03:15:21.284Z,53.9
2017-11-08T03:16:22.939Z,57.4
2017-11-08T03:17:24.589Z,53.7
2017-11-08T03:18:26.235Z,57.7
2017-11-08T03:19:27.883Z,50.7
2017-11-08T03:20:29.535Z,51.4
2017-11-08T03:21:31.193Z,57.4
2017-11-08T03:22:32.846Z,62.1
2017-11-08T03:23:34.497Z,54.3
2017-11-08T03:24:36.159Z,59.0
2017-11-08T03:25:37.827Z,59.2
2017-11-08T03:26:39.453Z,62.6
2017-11-08T03:27:41.110Z,61.5
2017-11-08T03:28:42.768Z,57.4
2017-11-08T03:29:44.416Z,70.7
2017-11-08T03:30:46.067Z,64.2
2017-11-08T03:31:47.711Z,61.4
2017-11-08T03:32:49.359Z,63.4
2017-11-08T03:33:51.007Z,61.1
2017-11-08T03:34:52.654Z,62.4
2017-11-08T03:35:54.308Z,62.9
2017-11-08T03:36:55.961Z,61.8
2017-11-08T03:37:57.610Z,67.0
2017-11-08T03:38:59.273Z,59.9
2017-11-08T03:40:00.920Z,66.3
2017-11-08T03:41:02.584Z,65.7
2017-11-08T03:42:04.235Z,70.4
2017-11-08T03:43:05.891Z,67.1
2017-11-08T03:44:07.579Z,71.6
2017-11-08T03:45:09.229Z,63.3
2017-11-08T03:46:10.881Z,67.2
2017-11-08T03:47:12.585Z,68.7
2017-11-08T03:48:14.237Z,69.9
2017-11-08T03:49:15.892Z,65.7
2017-11-08T03:50:17.555Z,69.1
2017-11-08T03:51:19.203Z,71.3
2017-11-08T03:52:20.857Z,74.1
2017-11-08T03:53:22.504Z,73.5
2017-11-08T03:54:24.203Z,71.5
2017-11-08T03:55:25.849Z,71.2
2017-11-08T03:56:27.503Z,73.4
2017-11-08T03:57:29.159Z,75.0
2017-11-08T03:58:30.811Z,73.0
2017-11-08T03:59:32.482Z,76.5
2017-11-08T04:00:34.133Z,71.2
2017-11-08T04:01:35.789Z,73.4
2017-11-08T04:02:37.443Z,71.8
2017-11-08T04:03:39.093Z,67.9
2017-11-08T04:04:40.762Z,76.1
2017-11-08T04:05:42.426Z,70.2
2017-11-08T04:06:44.078Z,67.7
2017-11-08T04:07:45.724Z,66.6
2017-11-08T04:08:47.378Z,70.1
2017-11-08T04:09:49.036Z,68.9
2017-11-08T04:10:50.683Z,71.7
2017-11-08T04:11:52.333Z,68.5
2017-11-08T04:12:53.986Z,70.4
2017-11-08T04:13:55.643Z,65.1
2017-11-08T04:14:57.339Z,68.6
2017-11-08T04:15:58.987Z,69.0
2017-11-08T04:17:00.640Z,75.5
2017-11-08T04:18:02.288Z,75.3
2017-11-08T04:19:03.943Z,71.8
2017-11-08T04:20:05.595Z,73.5
2017-11-08T04:21:07.241Z,72.2
2017-11-08T04:22:08.914Z,80.6
2017-11-08T04:23:10.568Z,75.5
2017-11-08T04:24:12.218Z,71.1
2017-11-08T04:25:13.870Z,73.5
2017-11-08T04:26:15.524Z,78.1
2017-11-08T04:27:17.213Z,77.9
2017-11-08T04:28:18.870Z,74.8
2017-11-08T04:29:20.524Z,69.9
2017-11-08T04:30:22.181Z,69.6
2017-11-08T04:31:23.837Z,73.1
2017-11-08T04:32:25.503Z,75.2
2017-11-08T04:33:27.161Z,74.7
2017-11-08T04:34:28.819Z,72.6
2017-11-08T04:35:30.469Z,76.6
2017-11-08T04:36:32.128Z,75.8
2017-11-08T04:37:33.777Z,76.0
2017-11-08T04:38:35.422Z,74.7
2017-11-08T04:39:37.074Z,76.9
2017-11-08T04:40:38.727Z,71.1
2017-11-08T04:41:40.383Z,70.6
2017-11-08T04:42:42.037Z,70.9
2017-11-08T04:43:43.695Z,71.7
2017-11-08T04:44:45.359Z,71.0
2017-11-08T04:45:47.009Z,76.5
2017-11-08T04:46:48.667Z,74.2
2017-11-08T04:47:50.316Z,78.7
2017-11-08T04:48:51.966Z,72.2
2017-11-08T04:49:53.618Z,81.3
2017-11-08T04:50:55.269Z,71.1
2017-11-08T04:51:56.918Z,75.6
2017-11-08T04:52:58.581Z,80.1
2017-11-08T04:54:00.234Z,79.3
2017-11-08T04:55:01.892Z,83.1
2017-11-08T04:56:03.552Z,79.5
2017-11-08T04:57:05.203Z,82.8
2017-11-08T04:58:06.848Z,78.1
2017-11-08T04:59:08.498Z,74.4
2017-11-08T05:00:10.147Z,80.5
2017-11-08T05:01:11.799Z,85.0
2017-11-08T05:02:13.453Z,82.4
2017-11-08T05:03:15.099Z,78.1
2017-11-08T05:04:18.512Z,89.5
2017-11-08T05:05:20.161Z,92.3
2017-11-08T05:06:21.962Z,89.2
2017-11-08T05:07:23.615Z,84.8
2017-11-08T05:08:25.264Z,89.2
2017-11-08T05:09:26.923Z,84.1
2017-11-08T05:10:41.439Z,90.6
2017-11-08T05:11:43.077Z,88.6
2017-11-08T05:12:44.729Z,89.3
2017-11-08T05:13:46.396Z,89.3
2017-11-08T05:14:49.408Z,84.6
2017-11-08T05:15:51.578Z,93.5
2017-11-08T05:16:53.227Z,85.3
2017-11-08T05:17:54.885Z,88.0
2017-11-08T05:18:56.538Z,87.7
2017-11-08T05:19:58.192Z,87.2
2017-11-08T05:20:59.846Z,91.6
2017-11-08T05:22:01.491Z,82.4
2017-11-08T05:23:03.146Z,84.8
2017-11-08T05:24:04.797Z,89.0
2017-11-08T05:25:06.469Z,84.4
2017-11-08T05:26:08.124Z,87.2
2017-11-08T05:27:09.775Z,85.4
2017-11-08T05:28:13.365Z,88.7
2017-11-08T05:29:15.027Z,80.5
2017-11-08T05:30:16.677Z,80.4
2017-11-08T05:31:18.330Z,86.7
2017-11-08T05:32:19.979Z,83.9
2017-11-08T05:33:21.643Z,87.6
2017-11-08T05:34:23.292Z,87.8
2017-11-08T05:35:24.942Z,79.4
2017-11-08T05:36:26.587Z,83.7
2017-11-08T05:37:28.236Z,77.8
2017-11-08T05:38:29.929Z,75.7
2017-11-08T05:39:31.585Z,83.3
2017-11-08T05:40:33.228Z,86.7
2017-11-08T05:41:34.891Z,93.6
2017-11-08T05:42:36.547Z,91.7
2017-11-08T05:43:38.190Z,90.4
2017-11-08T05:44:39.843Z,91.6
2017-11-08T05:45:41.511Z,91.2
2017-11-08T05:46:43.168Z,101.2
2017-11-08T05:47:44.808Z,99.9
2017-11-08T05:48:46.470Z,95.3
2017-11-08T05:49:48.129Z,94.7
2017-11-08T05:50:49.788Z,94.9
2017-11-08T05:51:51.557Z,88.4
2017-11-08T05:52:53.215Z,82.9
2017-11-08T05:53:54.863Z,86.6
2017-11-08T05:54:56.560Z,95.2
2017-11-08T05:55:58.240Z,82.6
2017-11-08T05:56:59.890Z,96.7
2017-11-08T05:58:01.546Z,97.1
2017-11-08T05:59:03.193Z,88.6
2017-11-08T06:00:04.861Z,90.4
2017-11-08T06:01:06.505Z,89.4
2017-11-08T06:02:08.154Z,90.4
2017-11-08T06:03:09.803Z,89.3
2017-11-08T06:04:11.493Z,89.3
2017-11-08T06:05:13.137Z,89.1
2017-11-08T06:06:14.792Z,94.0
2017-11-08T06:07:16.447Z,88.1
2017-11-08T06:08:18.103Z,82.8
2017-11-08T06:09:19.752Z,87.2
2017-11-08T06:10:21.404Z,91.5
2017-11-08T06:11:23.071Z,85.3
2017-11-08T06:12:24.718Z,82.5
2017-11-08T06:13:26.372Z,87.8
2017-11-08T06:14:28.024Z,92.4
2017-11-08T06:15:29.672Z,89.8
2017-11-08T06:16:31.333Z,94.2
2017-11-08T06:17:33.310Z,89.6
2017-11-08T06:18:34.977Z,90.5
2017-11-08T06:19:36.646Z,84.0
2017-11-08T06:20:38.363Z,87.8
2017-11-08T06:21:40.084Z,92.1
2017-11-08T06:22:41.749Z,82.8
2017-11-08T06:23:43.396Z,83.2
2017-11-08T06:24:45.090Z,84.1
2017-11-08T06:25:46.737Z,90.4
2017-11-08T06:26:48.384Z,91.1
2017-11-08T06:27:50.037Z,82.7
2017-11-08T06:28:51.690Z,84.1
2017-11-08T06:29:53.346Z,87.8
2017-11-08T06:30:55.024Z,88.4
2017-11-08T06:31:56.678Z,88.8
2017-11-08T06:32:58.342Z,90.0
2017-11-08T06:34:00.014Z,90.0
2017-11-08T06:35:01.669Z,88.3
2017-11-08T06:36:03.419Z,89.4
2017-11-08T06:37:05.080Z,92.2
2017-11-08T06:38:06.744Z,90.6
2017-11-08T06:39:08.397Z,87.0
2017-11-08T06:40:10.058Z,94.1
2017-11-08T06:41:11.715Z,96.3
2017-11-08T06:42:13.379Z,94.5
2017-11-08T06:43:15.022Z,88.6
2017-11-08T06:44:16.685Z,88.2
2017-11-08T06:45:18.341Z,82.4
2017-11-08T06:46:20.021Z,87.7
2017-11-08T06:47:21.672Z,96.8
2017-11-08T06:48:23.329Z,88.7
2017-11-08T06:49:24.984Z,96.8
2017-11-08T06:50:26.640Z,87.4
2017-11-08T06:51:28.296Z,85.1
2017-11-08T06:52:29.947Z,96.7
2017-11-08T06:53:31.597Z,89.0
2017-11-08T06:54:33.271Z,90.5
2017-11-08T06:55:34.929Z,97.3
2017-11-08T07:01:47.864Z,89.0
2017-11-08T07:02:49.494Z,85.8
2017-11-08T07:03:51.156Z,82.7
2017-11-08T07:04:52.812Z,98.7
2017-11-08T07:05:54.467Z,95.4
2017-11-08T07:06:56.130Z,95.5
2017-11-08T07:07:57.786Z,93.5
2017-11-08T07:08:59.441Z,91.0
2017-11-08T07:10:01.103Z,91.5
2017-11-08T07:11:02.835Z,90.1
2017-11-08T07:12:04.496Z,81.0
2017-11-08T07:13:06.159Z,92.7
2017-11-08T07:14:07.810Z,102.5
2017-11-08T07:15:09.470Z,95.7
2017-11-08T07:16:11.136Z,90.3
2017-11-08T07:17:12.799Z,91.0
2017-11-08T07:18:14.454Z,84.1
2017-11-08T07:19:16.104Z,85.7
2017-11-08T07:20:17.768Z,91.8
2017-11-08T07:21:19.429Z,92.1
2017-11-08T07:22:21.088Z,98.1
2017-11-08T07:23:22.758Z,90.7
2017-11-08T07:24:24.455Z,95.5
2017-11-08T07:25:26.110Z,94.2
2017-11-08T07:26:27.773Z,101.3
2017-11-08T07:27:29.418Z,94.0
2017-11-08T07:28:31.077Z,100.6
2017-11-08T07:29:32.792Z,114.9
2017-11-08T07:30:34.473Z,102.7
2017-11-08T07:31:36.145Z,89.9
2017-11-08T07:32:37.795Z,97.0
2017-11-08T07:33:39.441Z,96.4
2017-11-08T07:34:41.100Z,103.5
2017-11-08T07:35:42.759Z,102.1
2017-11-08T07:36:44.419Z,99.5
2017-11-08T07:37:46.066Z,101.8
2017-11-08T07:38:47.717Z,101.5
2017-11-08T07:39:49.371Z,97.9
2017-11-08T07:40:51.028Z,92.2
2017-11-08T07:41:52.686Z,96.5
2017-11-08T07:42:54.340Z,95.7
2017-11-08T07:43:55.998Z,92.0
2017-11-08T07:44:57.670Z,91.3
2017-11-08T07:45:59.333Z,90.9
2017-11-08T07:47:00.990Z,93.5
2017-11-08T07:48:02.647Z,94.6
2017-11-08T07:49:04.314Z,99.2
2017-11-08T07:50:05.977Z,103.7
2017-11-08T07:51:07.651Z,96.9
2017-11-08T07:52:09.287Z,91.5
2017-11-08T07:53:10.948Z,98.4
2017-11-08T07:54:12.610Z,88.9
2017-11-08T07:55:14.275Z,92.4
2017-11-08T07:56:15.923Z,84.4
2017-11-08T07:57:17.585Z,80.4
2017-11-08T07:58:19.241Z,83.1
2017-11-08T07:59:20.900Z,83.7
2017-11-08T08:00:22.575Z,88.3
2017-11-08T08:01:24.223Z,93.8
2017-11-08T08:02:25.880Z,93.6
2017-11-08T08:03:27.530Z,91.7
2017-11-08T08:04:29.188Z,89.3
2017-11-08T08:05:30.848Z,88.7
2017-11-08T08:06:32.509Z,94.1
2017-11-08T08:07:34.920Z,89.4
2017-11-08T08:08:36.575Z,90.8
2017-11-08T08:09:38.248Z,90.1
2017-11-08T08:10:39.913Z,92.9
2017-11-08T08:11:41.577Z,100.0
2017-11-08T08:12:43.236Z,99.7
2017-11-08T08:13:44.898Z,97.4
2017-11-08T08:14:46.559Z,101.1
2017-11-08T08:15:48.214Z,95.6
2017-11-08T08:16:49.870Z,92.4
2017-11-08T08:17:51.527Z,96.2
2017-11-08T08:18:53.184Z,101.1
2017-11-08T08:19:54.846Z,96.7
2017-11-08T08:20:56.502Z,88.2
2017-11-08T08:21:58.156Z,96.0
2017-11-08T08:22:59.816Z,94.8
2017-11-08T08:24:01.468Z,93.7
2017-11-08T08:25:03.126Z,89.7
2017-11-08T08:26:04.823Z,89.3
2017-11-08T08:27:06.496Z,103.5
2017-11-08T08:28:08.170Z,87.6
2017-11-08T08:29:09.824Z,102.4
2017-11-08T08:30:11.488Z,94.6
2017-11-08T08:31:13.142Z,90.7
2017-11-08T08:32:14.808Z,98.6
2017-11-08T08:33:16.470Z,98.3
2017-11-08T08:34:18.122Z,79.5
2017-11-08T08:35:19.784Z,90.5
2017-11-08T08:36:21.443Z,90.9
2017-11-08T08:37:23.115Z,87.3
2017-11-08T08:38:24.778Z,87.0
2017-11-08T08:39:26.448Z,84.1
2017-11-08T08:40:28.092Z,96.6
2017-11-08T08:41:29.764Z,86.9
2017-11-08T08:42:31.422Z,87.4
2017-11-08T08:43:33.075Z,93.6
2017-11-08T08:44:34.737Z,86.4
2017-11-08T08:45:36.400Z,86.5
2017-11-08T08:46:38.063Z,83.8
2017-11-08T08:47:39.722Z,92.1
2017-11-08T08:48:41.383Z,91.9
2017-11-08T08:49:43.040Z,92.2
2017-11-08T08:50:44.719Z,96.6
2017-11-08T08:51:46.381Z,95.4
2017-11-08T08:52:48.039Z,91.0
2017-11-08T08:53:49.702Z,110.5
2017-11-08T08:54:51.365Z,95.4
2017-11-08T08:55:53.061Z,104.2
2017-11-08T08:56:54.723Z,94.2
2017-11-08T08:57:56.384Z,100.7
2017-11-08T08:58:58.035Z,92.2
2017-11-08T08:59:59.700Z,90.3
2017-11-08T09:01:01.354Z,100.1
2017-11-08T09:02:03.016Z,103.0
2017-11-08T09:03:04.675Z,96.9
2017-11-08T09:04:06.331Z,94.1
2017-11-08T09:05:08.018Z,95.1
2017-11-08T09:06:09.946Z,97.1
2017-11-08T09:07:11.540Z,92.9
2017-11-08T09:08:13.206Z,98.3
2017-11-08T09:09:14.867Z,90.1
2017-11-08T09:10:16.522Z,97.6
2017-11-08T09:11:18.193Z,104.1
2017-11-08T09:12:19.855Z,93.1
2017-11-08T09:13:21.521Z,95.4
2017-11-08T09:14:23.718Z,100.0
2017-11-08T09:15:25.390Z,97.6
2017-11-08T09:16:27.063Z,102.1
2017-11-08T09:17:28.718Z,84.1
2017-11-08T09:18:30.381Z,93.9
2017-11-08T09:19:32.040Z,99.6
2017-11-08T09:20:33.699Z,89.6
2017-11-08T09:21:35.347Z,96.8
2017-11-08T09:22:36.997Z,103.1
2017-11-08T09:23:38.659Z,103.0
2017-11-08T09:24:40.316Z,96.9
2017-11-08T09:25:41.967Z,103.0
2017-11-08T09:26:43.615Z,104.4
2017-11-08T09:27:45.271Z,105.9
2017-11-08T09:28:46.932Z,101.6
2017-11-08T09:29:48.589Z,107.9
2017-11-08T09:30:50.277Z,115.5
2017-11-08T09:31:51.941Z,104.2
2017-11-08T09:32:53.596Z,106.4
2017-11-08T09:33:55.274Z,107.0
2017-11-08T09:34:56.929Z,106.0
2017-11-08T09:35:58.589Z,105.3
2017-11-08T09:37:00.260Z,107.3
2017-11-08T09:38:01.910Z,107.7
2017-11-08T09:39:03.586Z,106.1
2017-11-08T09:40:05.234Z,104.1
2017-11-08T09:41:06.896Z,113.6
2017-11-08T09:42:08.551Z,104.6
2017-11-08T09:43:10.216Z,107.7
2017-11-08T09:44:11.869Z,106.7
2017-11-08T09:45:13.528Z,109.7
2017-11-08T09:46:15.177Z,116.6
2017-11-08T09:47:16.832Z,103.9
2017-11-08T09:48:18.488Z,116.1
2017-11-08T09:49:20.158Z,110.9
2017-11-08T09:50:21.812Z,109.5
2017-11-08T09:51:23.475Z,103.0
2017-11-08T09:52:25.149Z,108.7
2017-11-08T09:53:26.798Z,108.7
2017-11-08T09:54:28.468Z,99.8
2017-11-08T09:55:30.160Z,113.5
2017-11-08T09:56:31.796Z,112.4
2017-11-08T09:57:33.451Z,111.8
2017-11-08T09:58:35.108Z,102.6
2017-11-08T09:59:36.785Z,95.4
2017-11-08T10:00:38.469Z,111.2
2017-11-08T10:01:40.121Z,108.7
2017-11-08T10:02:41.790Z,102.6
2017-11-08T10:03:43.437Z,116.0
2017-11-08T10:04:45.106Z,114.5
2017-11-08T10:05:46.778Z,102.2
2017-11-08T10:06:48.419Z,99.5
2017-11-08T10:07:50.104Z,100.2
2017-11-08T10:08:51.750Z,108.3
2017-11-08T10:09:53.498Z,101.5
2017-11-08T10:10:55.068Z,105.6
2017-11-08T10:11:56.736Z,105.0
2017-11-08T10:12:58.397Z,97.5
2017-11-08T10:14:00.084Z,102.6
2017-11-08T10:15:01.707Z,110.5
2017-11-08T10:16:03.367Z,103.6
2017-11-08T10:17:05.028Z,98.0
2017-11-08T10:18:06.682Z,105.2
2017-11-08T10:19:08.349Z,104.9
2017-11-08T10:20:09.998Z,96.5
2017-11-08T10:21:11.667Z,98.7
2017-11-08T10:22:13.329Z,91.9
2017-11-08T10:23:14.992Z,88.4
2017-11-08T10:24:16.646Z,94.0
2017-11-08T10:25:18.303Z,99.6
2017-11-08T10:26:19.970Z,93.6
2017-11-08T10:27:21.644Z,98.3
2017-11-08T10:28:23.311Z,101.5
2017-11-08T10:29:24.968Z,84.4
2017-11-08T10:30:26.631Z,94.4
2017-11-08T10:31:28.286Z,87.8
2017-11-08T10:32:29.944Z,93.8
2017-11-08T10:33:31.605Z,93.6
2017-11-08T10:34:33.262Z,95.3
2017-11-08T10:35:34.941Z,89.3
2017-11-08T10:36:36.598Z,90.6
2017-11-08T10:37:38.326Z,93.8
2017-11-08T10:38:40.062Z,90.3
2017-11-08T10:39:41.740Z,91.6
2017-11-08T10:40:43.397Z,89.6
2017-11-08T10:41:45.059Z,90.2
2017-11-08T10:42:46.670Z,94.5
2017-11-08T10:43:48.353Z,93.6
2017-11-08T10:44:49.991Z,82.4
2017-11-08T10:45:51.665Z,87.7
2017-11-08T10:46:53.325Z,92.5
2017-11-08T10:47:54.987Z,92.9
2017-11-08T10:48:56.643Z,94.5
2017-11-08T10:49:58.323Z,86.6
2017-11-08T10:51:00.008Z,87.3
2017-11-08T10:52:01.667Z,90.3
2017-11-08T10:53:03.347Z,88.0
2017-11-08T10:54:05.013Z,87.2
2017-11-08T10:55:06.681Z,101.8
2017-11-08T11:01:23.262Z,89.4
2017-11-08T11:02:24.923Z,100.0
2017-11-08T11:03:26.568Z,88.2
2017-11-08T11:04:28.226Z,92.6
2017-11-08T11:05:29.900Z,90.4
2017-11-08T11:06:31.557Z,84.3
2017-11-08T11:07:33.245Z,89.0
2017-11-08T11:08:34.907Z,83.2
2017-11-08T11:09:36.577Z,87.8
2017-11-08T11:10:38.223Z,88.3
2017-11-08T11:11:39.885Z,88.5
2017-11-08T11:12:41.554Z,96.4
2017-11-08T11:13:43.224Z,84.0
2017-11-08T11:14:44.936Z,92.9
2017-11-08T11:15:46.598Z,89.0
2017-11-08T11:16:48.257Z,94.3
2017-11-08T11:17:49.921Z,93.1
2017-11-08T11:18:51.573Z,92.9
2017-11-08T11:19:53.232Z,97.4
2017-11-08T11:20:54.890Z,90.0
2017-11-08T11:21:56.554Z,91.0
2017-11-08T11:22:58.218Z,87.3
2017-11-08T11:23:59.878Z,96.3
2017-11-08T11:25:01.530Z,95.8
2017-11-08T11:26:03.204Z,93.9
2017-11-08T11:27:04.866Z,103.3
2017-11-08T11:28:06.528Z,98.1
2017-11-08T11:29:08.182Z,93.7
2017-11-08T11:30:09.842Z,96.7
2017-11-08T11:31:11.505Z,90.5
2017-11-08T11:32:13.186Z,93.1
2017-11-08T11:33:14.846Z,102.5
2017-11-08T11:34:16.516Z,96.2
2017-11-08T11:35:18.176Z,96.7
2017-11-08T11:36:19.839Z,105.3
2017-11-08T11:37:21.508Z,100.1
2017-11-08T11:38:23.177Z,97.4
2017-11-08T11:39:24.843Z,96.8
2017-11-08T11:40:26.507Z,94.0
2017-11-08T11:41:28.271Z,99.5
2017-11-08T11:42:29.927Z,92.5
2017-11-08T11:43:31.583Z,95.1
2017-11-08T11:44:33.260Z,99.9
2017-11-08T11:45:34.920Z,97.5
2017-11-08T11:46:36.580Z,96.3
2017-11-08T11:47:38.235Z,100.1
2017-11-08T11:48:39.903Z,87.8
2017-11-08T11:49:41.551Z,90.5
2017-11-08T11:50:43.214Z,96.5
2017-11-08T11:51:44.888Z,96.2
2017-11-08T11:52:46.534Z,97.5
2017-11-08T11:53:48.196Z,102.7
2017-11-08T11:54:49.850Z,98.1
2017-11-08T11:55:51.523Z,100.7
2017-11-08T11:56:53.187Z,91.4
2017-11-08T11:57:54.857Z,102.0
2017-11-08T11:58:56.565Z,94.1
2017-11-08T11:59:58.242Z,96.2
2017-11-08T12:00:59.904Z,103.8
2017-11-08T12:02:01.558Z,96.4
2017-11-08T12:03:03.237Z,100.4
2017-11-08T12:04:04.896Z,96.8
2017-11-08T12:05:06.561Z,101.6
2017-11-08T12:06:08.218Z,104.8
2017-11-08T12:07:09.951Z,101.7
2017-11-08T12:08:11.608Z,104.1
2017-11-08T12:09:13.266Z,95.0
2017-11-08T12:10:14.937Z,95.7
2017-11-08T12:11:16.600Z,91.6
2017-11-08T12:12:18.269Z,94.2
2017-11-08T12:13:19.922Z,90.5
2017-11-08T12:14:21.604Z,95.0
2017-11-08T12:15:23.254Z,90.7
2017-11-08T12:16:24.919Z,103.1
2017-11-08T12:17:26.669Z,98.0
2017-11-08T12:18:28.335Z,98.7
2017-11-08T12:19:30.000Z,98.0
2017-11-08T12:20:31.660Z,101.7
2017-11-08T12:21:33.315Z,100.9
2017-11-08T12:22:34.971Z,104.3
2017-11-08T12:23:36.635Z,95.2
2017-11-08T12:24:38.312Z,97.3
2017-11-08T12:25:39.965Z,100.0
2017-11-08T12:26:41.625Z,95.9
2017-11-08T12:27:43.292Z,96.0
2017-11-08T12:28:44.949Z,100.2
2017-11-08T12:29:46.616Z,99.5
2017-11-08T12:30:48.273Z,106.5
2017-11-08T12:31:49.938Z,100.6
2017-11-08T12:32:51.625Z,103.3
2017-11-08T12:33:53.266Z,98.6
2017-11-08T12:34:54.934Z,117.0
2017-11-08T12:35:56.595Z,97.5
2017-11-08T12:36:58.253Z,102.7
2017-11-08T12:37:59.914Z,100.7
2017-11-08T12:39:01.575Z,98.6
2017-11-08T12:40:03.234Z,99.2
2017-11-08T12:41:04.892Z,99.3
2017-11-08T12:42:06.548Z,100.3
2017-11-08T12:43:08.203Z,93.2
2017-11-08T12:44:09.922Z,97.9
2017-11-08T12:45:11.642Z,92.9
2017-11-08T12:46:13.303Z,97.2
2017-11-08T12:47:14.973Z,95.9
2017-11-08T12:48:16.629Z,89.3
2017-11-08T12:49:18.292Z,98.1
2017-11-08T12:50:19.944Z,95.5
2017-11-08T12:51:21.603Z,95.4
2017-11-08T12:52:23.272Z,91.1
2017-11-08T12:53:24.932Z,88.2
2017-11-08T12:54:26.588Z,88.5
2017-11-08T12:55:28.238Z,91.7
2017-11-08T12:56:29.901Z,86.0
2017-11-08T12:57:31.562Z,89.0
2017-11-08T12:58:33.260Z,92.7
2017-11-08T12:59:34.911Z,98.3
2017-11-08T13:00:36.572Z,92.5
2017-11-08T13:01:38.233Z,94.5
2017-11-08T13:02:39.893Z,104.7
2017-11-08T13:03:41.574Z,94.8
2017-11-08T13:04:43.225Z,94.2
2017-11-08T13:05:44.909Z,100.9
2017-11-08T13:06:46.567Z,91.3
2017-11-08T13:07:48.226Z,91.7
2017-11-08T13:08:49.904Z,90.5
2017-11-08T13:09:51.564Z,98.5
2017-11-08T13:10:53.233Z,109.0
2017-11-08T13:11:55.018Z,96.7
2017-11-08T13:12:56.692Z,110.6
2017-11-08T13:13:58.354Z,108.9
2017-11-08T13:15:00.026Z,93.3
2017-11-08T13:16:01.692Z,111.3
2017-11-08T13:17:03.364Z,106.4
2017-11-08T13:18:05.020Z,107.8
2017-11-08T13:19:06.680Z,99.9
2017-11-08T13:20:08.337Z,102.9
2017-11-08T13:21:10.030Z,93.7
2017-11-08T13:22:11.701Z,101.6
2017-11-08T13:23:13.365Z,110.2
2017-11-08T13:24:15.038Z,103.2
2017-11-08T13:25:16.698Z,104.6
2017-11-08T13:26:18.356Z,97.2
2017-11-08T13:27:20.014Z,108.7
2017-11-08T13:28:21.712Z,108.0
2017-11-08T13:29:23.372Z,102.4
2017-11-08T13:30:25.042Z,102.8
2017-11-08T13:31:26.708Z,104.2
2017-11-08T13:32:28.370Z,105.6
2017-11-08T13:33:30.033Z,105.6
2017-11-08T13:34:31.688Z,105.6
2017-11-08T13:35:33.344Z,104.9
2017-11-08T13:36:35.019Z,103.7
2017-11-08T13:37:36.683Z,115.5
2017-11-08T13:38:38.345Z,112.2
2017-11-08T13:39:40.006Z,108.8
2017-11-08T13:40:41.669Z,107.7
2017-11-08T13:41:43.328Z,114.0
2017-11-08T13:42:45.001Z,114.2
2017-11-08T13:43:46.662Z,119.9
2017-11-08T13:44:48.317Z,110.9
2017-11-08T13:45:49.981Z,114.4
2017-11-08T13:46:51.646Z,116.8
2017-11-08T13:47:53.304Z,118.4
2017-11-08T13:48:54.979Z,125.8
2017-11-08T13:49:56.632Z,125.7
2017-11-08T13:50:58.301Z,118.6
2017-11-08T13:51:59.972Z,122.4